createdAt,value
2023-04-02T00:03:54.055Z,96.07
2023-04-02T00:07:59.266Z,96.56
2023-04-02T00:12:15.627Z,96.40
2023-04-02T00:16:23.208Z,95.96
2023-04-02T00:20:27.714Z,96.05
2023-04-02T00:24:29.616Z,96.05
2023-04-02T00:28:31.461Z,96.21
2023-04-02T00:32:36.208Z,95.80
2023-04-02T00:36:38.553Z,95.77
2023-04-02T00:40:40.517Z,95.98
2023-04-02T00:44:45.472Z,95.86
2023-04-02T00:48:50.514Z,95.62
2023-04-02T00:52:54.632Z,95.11
2023-04-02T00:56:58.560Z,94.99
2023-04-02T01:01:01.074Z,95.16
2023-04-02T01:05:24.453Z,95.14
2023-04-02T01:09:37.774Z,95.03
2023-04-02T01:13:53.536Z,94.49
2023-04-02T01:18:26.728Z,94.67
2023-04-02T01:22:36.655Z,94.74
2023-04-02T01:26:53.318Z,94.53
2023-04-02T01:30:59.087Z,94.20
2023-04-02T01:35:01.593Z,94.28
2023-04-02T01:39:34.207Z,94.25
2023-04-02T01:44:00.680Z,94.32
2023-04-02T01:48:22.146Z,94.38
2023-04-02T01:52:37.067Z,94.12
2023-04-02T01:56:39.741Z,93.90
2023-04-02T02:00:53.300Z,93.83
2023-04-02T02:04:55.364Z,93.82
2023-04-02T02:09:04.577Z,93.32
2023-04-02T02:13:11.541Z,93.40
2023-04-02T02:17:24.318Z,93.33
2023-04-02T02:21:40.332Z,93.58
2023-04-02T02:25:49.010Z,93.19
2023-04-02T02:29:56.029Z,93.38
2023-04-02T02:34:09.097Z,93.38
2023-04-02T02:38:29.461Z,93.54
2023-04-02T02:42:44.399Z,93.24
2023-04-02T02:47:12.730Z,93.25
2023-04-02T02:51:44.393Z,93.52
2023-04-02T02:55:58.852Z,93.66
2023-04-02T03:00:08.123Z,93.30
2023-04-02T03:04:10.803Z,93.42
2023-04-02T03:08:28.525Z,93.02
2023-04-02T03:12:42.351Z,93.07
2023-04-02T03:16:49.499Z,93.25
2023-04-02T03:20:54.536Z,93.54
2023-04-02T03:25:12.719Z,93.44
2023-04-02T03:29:28.116Z,93.39
2023-04-02T03:33:36.438Z,93.12
2023-04-02T03:37:45.512Z,93.36
2023-04-02T03:42:05.935Z,93.32
2023-04-02T03:46:24.821Z,93.31
2023-04-02T03:50:35.620Z,93.72
2023-04-02T03:54:38.756Z,93.24
2023-04-02T03:58:47.929Z,93.21
2023-04-02T04:02:57.678Z,93.31
2023-04-02T04:07:01.322Z,93.17
2023-04-02T04:11:10.557Z,93.06
2023-04-02T04:15:41.822Z,93.18
2023-04-02T04:19:58.511Z,92.98
2023-04-02T04:24:06.785Z,92.98
2023-04-02T04:28:27.114Z,92.91
2023-04-02T04:32:58.453Z,93.40
2023-04-02T04:37:07.987Z,93.03
2023-04-02T04:41:13.779Z,92.95
2023-04-02T04:45:30.446Z,93.01
2023-04-02T04:49:38.742Z,92.84
2023-04-02T04:53:50.891Z,92.50
2023-04-02T04:58:02.117Z,92.59
2023-04-02T05:02:12.913Z,92.52
2023-04-02T05:06:35.579Z,92.34
2023-04-02T05:10:46.522Z,92.56
2023-04-02T05:15:16.744Z,92.37
2023-04-02T05:19:32.927Z,92.18
2023-04-02T05:23:39.251Z,92.09
2023-04-02T05:27:59.996Z,91.40
2023-04-02T05:32:07.052Z,91.35
2023-04-02T05:36:20.235Z,90.34
2023-04-02T05:40:33.888Z,90.59
2023-04-02T05:44:45.819Z,90.71
2023-04-02T05:48:56.929Z,90.48
2023-04-02T05:53:14.761Z,91.03
2023-04-02T05:57:27.051Z,90.56
2023-04-02T06:01:47.516Z,90.42
2023-04-02T06:06:00.163Z,89.63
2023-04-02T06:10:18.471Z,89.40
2023-04-02T06:14:20.722Z,89.21
2023-04-02T06:18:26.204Z,88.49
2023-04-02T06:22:42.096Z,87.70
2023-04-02T06:26:56.427Z,87.86
2023-04-02T06:31:06.171Z,87.27
2023-04-02T06:35:14.989Z,87.23
2023-04-02T06:39:23.261Z,87.02
2023-04-02T06:43:37.564Z,87.01
2023-04-02T06:48:16.832Z,87.07
2023-04-02T06:52:28.687Z,86.32
2023-04-02T06:56:44.853Z,86.39
2023-04-02T07:00:51.384Z,85.89
2023-04-02T07:05:09.646Z,85.54
2023-04-02T07:09:16.139Z,85.56
2023-04-02T07:13:25.365Z,85.71
2023-04-02T07:17:28.184Z,85.54
2023-04-02T07:21:30.548Z,85.69
2023-04-02T07:25:32.454Z,85.39
2023-04-02T07:29:34.278Z,85.58
2023-04-02T07:33:36.163Z,85.78
2023-04-02T07:37:38.577Z,86.12
2023-04-02T07:41:55.044Z,85.94
2023-04-02T07:45:57.010Z,85.53
2023-04-02T07:49:58.842Z,85.94
2023-04-02T07:54:02.000Z,85.78
2023-04-02T07:58:04.336Z,85.51
2023-04-02T08:02:06.382Z,85.84
2023-04-02T08:06:08.318Z,85.48
2023-04-02T08:10:12.102Z,85.05
2023-04-02T08:14:14.090Z,85.29
2023-04-02T08:18:15.909Z,85.32
2023-04-02T08:22:17.827Z,85.30
2023-04-02T08:26:19.728Z,84.88
2023-04-02T08:30:21.801Z,84.74
2023-04-02T08:34:23.599Z,84.20
2023-04-02T08:38:26.010Z,84.16
2023-04-02T08:43:05.495Z,84.03
2023-04-02T08:47:08.718Z,82.69
2023-04-02T08:51:22.963Z,81.61
2023-04-02T08:55:38.156Z,81.79
2023-04-02T08:59:43.457Z,81.81
2023-04-02T09:03:47.958Z,80.71
2023-04-02T09:07:52.632Z,80.04
2023-04-02T09:12:04.524Z,79.44
2023-04-02T09:16:11.070Z,78.08
2023-04-02T09:20:21.427Z,77.62
2023-04-02T09:24:23.329Z,76.22
2023-04-02T09:28:26.620Z,77.82
2023-04-02T09:32:53.449Z,78.40
2023-04-02T09:36:56.259Z,77.60
2023-04-02T09:41:01.630Z,77.29
2023-04-02T09:45:35.969Z,77.23
2023-04-02T09:49:39.803Z,76.99
2023-04-02T09:54:06.103Z,76.84
2023-04-02T09:58:13.964Z,76.39
2023-04-02T10:02:28.733Z,75.94
2023-04-02T10:06:32.874Z,76.07
2023-04-02T10:10:47.108Z,75.75
2023-04-02T10:14:50.082Z,73.96
2023-04-02T10:18:57.325Z,73.97
2023-04-02T10:22:59.307Z,73.23
2023-04-02T10:27:06.858Z,73.48
2023-04-02T10:31:20.381Z,71.68
2023-04-02T10:35:46.146Z,71.23
2023-04-02T10:39:57.217Z,71.08
2023-04-02T10:44:37.541Z,70.90
2023-04-02T10:48:44.270Z,70.08
2023-04-02T10:52:58.112Z,70.08
2023-04-02T10:57:20.597Z,69.56
2023-04-02T11:01:31.418Z,69.46
2023-04-02T11:05:46.913Z,69.65
2023-04-02T11:09:52.725Z,69.07
2023-04-02T11:14:06.570Z,69.34
2023-04-02T11:18:22.273Z,69.24
2023-04-02T11:22:24.960Z,69.10
2023-04-02T11:26:32.501Z,68.25
2023-04-02T11:30:34.924Z,68.14
2023-04-02T11:34:46.305Z,68.03
2023-04-02T11:38:52.537Z,68.50
2023-04-02T11:42:54.860Z,68.11
2023-04-02T11:47:16.567Z,68.53
2023-04-02T11:51:22.652Z,68.48
2023-04-02T11:55:32.918Z,67.79
2023-04-02T12:00:01.478Z,67.91
2023-04-02T12:04:09.565Z,68.15
2023-04-02T12:08:22.912Z,67.91
2023-04-02T12:12:24.701Z,67.44
2023-04-02T12:16:33.465Z,67.55
2023-04-02T12:20:35.901Z,67.30
2023-04-02T12:24:38.206Z,67.33
2023-04-02T12:28:42.532Z,67.26
2023-04-02T12:32:44.422Z,67.84
2023-04-02T12:36:57.245Z,67.91
2023-04-02T12:41:06.250Z,67.40
2023-04-02T12:45:26.601Z,66.97
2023-04-02T12:49:42.268Z,66.62
2023-04-02T12:53:50.766Z,66.13
2023-04-02T12:58:00.209Z,66.43
2023-04-02T13:02:16.037Z,66.76
2023-04-02T13:06:24.291Z,66.54
2023-04-02T13:10:27.647Z,66.29
2023-04-02T13:14:30.528Z,65.86
2023-04-02T13:18:35.506Z,66.04
2023-04-02T13:22:37.491Z,65.92
2023-04-02T13:26:39.374Z,65.69
2023-04-02T13:30:41.252Z,65.45
2023-04-02T13:34:43.132Z,65.11
2023-04-02T13:38:44.973Z,65.35
2023-04-02T13:42:48.986Z,64.99
2023-04-02T13:46:52.069Z,64.80
2023-04-02T13:50:53.908Z,64.58
2023-04-02T13:55:00.153Z,64.67
2023-04-02T13:59:02.348Z,64.38
2023-04-02T14:03:19.071Z,64.00
2023-04-02T14:07:31.020Z,64.05
2023-04-02T14:11:56.975Z,63.68
2023-04-02T14:16:16.066Z,63.61
2023-04-02T14:20:38.138Z,63.41
2023-04-02T14:24:52.995Z,62.84
2023-04-02T14:29:22.287Z,63.31
2023-04-02T14:33:45.234Z,63.14
2023-04-02T14:38:08.444Z,62.76
2023-04-02T14:42:18.524Z,62.38
2023-04-02T14:46:29.249Z,62.66
2023-04-02T14:50:38.696Z,62.64
2023-04-02T14:54:52.022Z,61.88
2023-04-02T14:59:08.746Z,62.02
2023-04-02T15:03:22.257Z,62.04
2023-04-02T15:07:29.922Z,61.23
2023-04-02T15:11:47.368Z,61.54
2023-04-02T15:15:59.143Z,61.36
2023-04-02T15:20:18.275Z,61.37
2023-04-02T15:24:47.867Z,60.94
2023-04-02T15:29:22.201Z,61.10
2023-04-02T15:33:48.507Z,60.89
2023-04-02T15:38:11.879Z,60.98
2023-04-02T15:42:19.942Z,60.55
2023-04-02T15:46:45.634Z,60.88
2023-04-02T15:50:50.265Z,61.11
2023-04-02T15:55:26.557Z,60.98
2023-04-02T15:59:28.321Z,60.47
2023-04-02T16:03:46.627Z,60.31
2023-04-02T16:07:54.601Z,60.66
2023-04-02T16:12:11.990Z,60.63
2023-04-02T16:16:19.218Z,60.43
2023-04-02T16:20:27.549Z,60.51
2023-04-02T16:24:29.309Z,60.63
2023-04-02T16:28:46.660Z,60.64
2023-04-02T16:32:48.448Z,61.02
2023-04-02T16:37:14.894Z,60.89
2023-04-02T16:41:49.807Z,60.93
2023-04-02T16:45:54.591Z,60.65
2023-04-02T16:50:02.422Z,60.78
2023-04-02T16:54:04.344Z,60.97
2023-04-02T16:58:34.209Z,60.72
2023-04-02T17:02:57.945Z,60.86
2023-04-02T17:07:18.239Z,60.79
2023-04-02T17:11:36.324Z,61.06
2023-04-02T17:15:39.761Z,61.06
2023-04-02T17:19:44.382Z,60.92
2023-04-02T17:24:00.509Z,61.11
2023-04-02T17:28:08.504Z,61.22
2023-04-02T17:32:32.771Z,61.22
2023-04-02T17:37:02.385Z,61.49
2023-04-02T17:41:35.828Z,61.64
2023-04-02T17:45:51.743Z,62.16
2023-04-02T17:50:08.757Z,62.76
2023-04-02T17:54:31.088Z,62.94
2023-04-02T17:59:03.613Z,63.37
2023-04-02T18:03:20.721Z,63.26
2023-04-02T18:07:35.790Z,63.87
2023-04-02T18:11:56.625Z,64.30
2023-04-02T18:16:06.789Z,64.72
2023-04-02T18:20:17.974Z,64.89
2023-04-02T18:24:46.472Z,65.36
2023-04-02T18:29:12.562Z,65.89
2023-04-02T18:33:23.206Z,65.93
2023-04-02T18:37:43.718Z,66.37
2023-04-02T18:42:11.683Z,66.07
2023-04-02T18:46:19.576Z,66.16
2023-04-02T18:50:39.363Z,66.62
2023-04-02T18:55:02.013Z,66.88
2023-04-02T18:59:35.208Z,66.71
2023-04-02T19:03:51.624Z,67.04
2023-04-02T19:08:04.194Z,66.78
2023-04-02T19:12:19.361Z,67.32
2023-04-02T19:16:49.020Z,66.89
2023-04-02T19:20:58.569Z,67.35
2023-04-02T19:25:18.905Z,66.83
2023-04-02T19:30:04.880Z,66.95
2023-04-02T19:34:17.712Z,67.17
2023-04-02T19:38:19.449Z,67.31
2023-04-02T19:42:42.508Z,67.07
2023-04-02T19:46:45.113Z,67.11
2023-04-02T19:50:48.375Z,67.17
2023-04-02T19:54:50.232Z,67.83
2023-04-02T19:58:52.112Z,67.67
2023-04-02T20:02:54.008Z,67.73
2023-04-02T20:06:55.997Z,68.28
2023-04-02T20:10:58.919Z,68.31
2023-04-02T20:15:01.124Z,68.50
2023-04-02T20:19:03.434Z,68.34
2023-04-02T20:23:05.747Z,68.89
2023-04-02T20:27:07.511Z,68.75
2023-04-02T20:31:15.057Z,68.88
2023-04-02T20:35:16.976Z,68.95
2023-04-02T20:39:20.403Z,69.28
2023-04-02T20:43:22.713Z,69.44
2023-04-02T20:47:24.721Z,70.06
2023-04-02T20:51:26.643Z,70.46
2023-04-02T20:55:28.452Z,71.04
2023-04-02T20:59:30.353Z,71.90
2023-04-02T21:03:32.216Z,72.00
2023-04-02T21:07:34.623Z,72.32
2023-04-02T21:11:36.884Z,72.11
2023-04-02T21:15:43.081Z,72.31
2023-04-02T21:19:44.954Z,72.63
2023-04-02T21:23:47.376Z,73.06
2023-04-02T21:27:49.220Z,72.62
2023-04-02T21:31:51.128Z,72.77
2023-04-02T21:35:53.034Z,72.38
2023-04-02T21:39:54.884Z,72.78
2023-04-02T21:43:59.001Z,72.52
2023-04-02T21:48:01.212Z,72.07
2023-04-02T21:52:03.084Z,71.94
2023-04-02T21:56:07.884Z,71.88
2023-04-02T22:00:12.520Z,71.93
2023-04-02T22:04:20.847Z,71.74
2023-04-02T22:08:22.566Z,71.54
2023-04-02T22:12:24.499Z,71.29
2023-04-02T22:16:29.214Z,70.98
2023-04-02T22:20:31.315Z,70.47
2023-04-02T22:24:33.232Z,70.38
2023-04-02T22:28:35.672Z,70.59
2023-04-02T22:32:37.621Z,70.27
2023-04-02T22:36:39.462Z,70.65
2023-04-02T22:40:41.268Z,70.49
2023-04-02T22:44:43.069Z,70.11
2023-04-02T22:48:46.058Z,70.31
2023-04-02T22:52:47.863Z,69.98
2023-04-02T22:56:49.669Z,70.13
2023-04-02T23:00:51.464Z,69.79
2023-04-02T23:04:53.415Z,69.63
2023-04-02T23:08:55.566Z,69.78
2023-04-02T23:12:57.430Z,69.85
2023-04-02T23:16:59.368Z,70.14
2023-04-02T23:21:01.399Z,70.21
2023-04-02T23:25:04.735Z,69.98
2023-04-02T23:29:06.682Z,70.52
2023-04-02T23:33:08.662Z,70.78
2023-04-02T23:37:10.713Z,70.50
2023-04-02T23:41:15.084Z,70.95
2023-04-02T23:45:17.825Z,71.01
2023-04-02T23:49:20.080Z,71.37
2023-04-02T23:53:22.029Z,71.20
2023-04-02T23:57:23.900Z,71.14
